Time;durP1;ratioP1;P1;durP2;ratioP2;P2;SDS_P1;SDS_P2;PMS_P1;PMS_P2;Temp;Humidity;BMP_temperature;BMP_pressure;BME280_temperature;BME280_humidity;BME280_pressure;Samples;Min_cycle;Max_cycle;Signal;HPM_P1;HPM_P2
2023/10/03 00:02:22;;;;;;;19.63;9.90;;;14.80;99.90;;;;;;4954396;29;20102;-69
2023/10/03 00:04:48;;;;;;;16.63;8.35;;;14.80;99.90;;;;;;4954304;29;20023;-70
2023/10/03 00:07:14;;;;;;;15.88;9.77;;;14.80;99.90;;;;;;4954202;29;20031;-69
2023/10/03 00:09:41;;;;;;;19.70;10.02;;;14.80;99.90;;;;;;4954644;29;20031;-69
2023/10/03 00:12:08;;;;;;;20.92;10.57;;;14.80;99.90;;;;;;4955011;29;20435;-70
2023/10/03 00:14:34;;;;;;;18.52;9.05;;;14.80;99.90;;;;;;4952699;29;20077;-68
2023/10/03 00:17:00;;;;;;;20.52;8.75;;;14.80;99.90;;;;;;4954125;29;20019;-69
2023/10/03 00:19:26;;;;;;;17.10;9.15;;;14.80;99.90;;;;;;4954538;29;20050;-70
2023/10/03 00:21:52;;;;;;;22.90;12.68;;;14.90;99.90;;;;;;4950075;29;20023;-70
2023/10/03 00:24:17;;;;;;;22.15;12.05;;;14.80;99.90;;;;;;4954139;29;20055;-69
2023/10/03 00:26:44;;;;;;;17.40;10.30;;;14.90;99.90;;;;;;4954901;29;20047;-69
2023/10/03 00:29:13;;;;;;;23.30;10.75;;;14.90;99.90;;;;;;4953525;28;20150;-69
2023/10/03 00:31:40;;;;;;;17.92;9.85;;;14.90;99.90;;;;;;4954794;29;20051;-70
2023/10/03 00:34:06;;;;;;;19.20;10.55;;;14.90;99.90;;;;;;4954836;29;20035;-69
2023/10/03 00:36:31;;;;;;;20.58;10.05;;;14.90;99.90;;;;;;4950870;29;20498;-70
2023/10/03 00:38:57;;;;;;;18.20;9.60;;;14.90;99.90;;;;;;4954731;29;20035;-69
2023/10/03 00:41:23;;;;;;;16.90;10.23;;;14.90;99.90;;;;;;4953774;28;20027;-71
2023/10/03 00:43:58;;;;;;;20.00;9.65;;;14.90;99.90;;;;;;4954434;29;20114;-70
2023/10/03 00:46:27;;;;;;;17.63;9.73;;;14.90;99.90;;;;;;4952981;29;20499;-70
2023/10/03 00:48:54;;;;;;;19.38;9.98;;;14.80;99.90;;;;;;4938652;29;20047;-70
2023/10/03 00:51:21;;;;;;;25.08;11.68;;;14.90;99.90;;;;;;4953166;29;20028;-70
2023/10/03 00:53:49;;;;;;;21.85;11.68;;;14.90;99.90;;;;;;4954525;29;20024;-70
2023/10/03 00:56:15;;;;;;;20.40;11.55;;;14.80;99.90;;;;;;4953182;29;20027;-70
2023/10/03 00:58:41;;;;;;;29.40;12.68;;;14.80;99.90;;;;;;4939322;29;20031;-70
2023/10/03 01:01:09;;;;;;;21.58;12.25;;;14.90;99.90;;;;;;4952964;29;20046;-70
2023/10/03 01:03:37;;;;;;;26.20;13.32;;;14.90;99.90;;;;;;4954293;29;20024;-70
2023/10/03 01:06:09;;;;;;;19.23;11.23;;;14.90;99.90;;;;;;4953172;29;20059;-71
2023/10/03 01:08:40;;;;;;;17.77;10.82;;;14.80;99.90;;;;;;4954274;29;20528;-70
2023/10/03 01:11:17;;;;;;;26.75;13.52;;;14.90;99.90;;;;;;4951809;29;20051;-71
2023/10/03 01:13:48;;;;;;;25.27;12.48;;;14.80;99.90;;;;;;4949074;29;20037;-70
2023/10/03 01:16:23;;;;;;;23.83;12.70;;;14.80;99.90;;;;;;4934952;29;20027;-71
2023/10/03 01:18:52;;;;;;;23.98;12.52;;;14.70;99.90;;;;;;4953346;29;20089;-72
2023/10/03 01:21:20;;;;;;;25.55;14.95;;;14.70;99.90;;;;;;4954130;29;20070;-70
2023/10/03 01:23:47;;;;;;;26.52;13.55;;;14.70;99.90;;;;;;4954108;29;20495;-71
2023/10/03 01:26:15;;;;;;;27.38;12.40;;;14.70;99.90;;;;;;4953923;29;20355;-70
2023/10/03 01:28:41;;;;;;;22.70;12.88;;;14.60;99.90;;;;;;4949275;29;20039;-70
2023/10/03 01:31:07;;;;;;;22.75;12.75;;;14.50;99.90;;;;;;4954003;29;20023;-70
2023/10/03 01:33:34;;;;;;;25.10;13.07;;;14.40;99.90;;;;;;4954078;29;20158;-72
2023/10/03 01:36:02;;;;;;;23.70;11.07;;;14.40;99.90;;;;;;4954255;29;20494;-71
2023/10/03 01:38:28;;;;;;;27.23;12.48;;;14.30;99.90;;;;;;4952676;29;20039;-71
2023/10/03 01:40:58;;;;;;;24.10;11.95;;;14.30;99.90;;;;;;4953874;29;20019;-70
2023/10/03 01:43:24;;;;;;;31.33;10.02;;;14.30;99.90;;;;;;4952487;29;20042;-71
2023/10/03 01:45:52;;;;;;;23.13;12.13;;;14.30;99.90;;;;;;4953835;29;20032;-70
2023/10/03 01:48:18;;;;;;;21.70;10.77;;;14.30;99.90;;;;;;4952528;29;20054;-70
2023/10/03 01:50:44;;;;;;;21.33;11.93;;;14.30;99.90;;;;;;4952542;29;20023;-70
2023/10/03 01:53:11;;;;;;;17.70;10.05;;;14.30;99.90;;;;;;4954467;28;20035;-70
2023/10/03 01:55:38;;;;;;;22.52;11.70;;;14.20;99.90;;;;;;4957742;29;20102;-70
2023/10/03 01:58:05;;;;;;;17.27;10.40;;;14.20;99.90;;;;;;4956037;29;20142;-70
2023/10/03 02:00:36;;;;;;;26.58;10.50;;;14.20;99.90;;;;;;4956273;29;20030;-70
2023/10/03 02:03:06;;;;;;;18.40;9.65;;;14.20;99.90;;;;;;4956163;29;20082;-72
2023/10/03 02:05:34;;;;;;;17.65;9.25;;;14.20;99.90;;;;;;4957532;29;20050;-71
2023/10/03 02:08:07;;;;;;;18.02;8.70;;;14.30;99.90;;;;;;4930332;29;20034;-71
2023/10/03 02:10:35;;;;;;;17.60;8.55;;;14.20;99.90;;;;;;4937312;29;20097;-69
2023/10/03 02:13:09;;;;;;;19.83;8.48;;;14.00;99.90;;;;;;4957122;29;20015;-70
2023/10/03 02:15:36;;;;;;;19.42;9.20;;;14.00;99.90;;;;;;4955506;29;20035;-70
2023/10/03 02:18:03;;;;;;;19.58;9.68;;;14.00;99.90;;;;;;4926721;29;20030;-71
2023/10/03 02:20:30;;;;;;;21.20;9.88;;;13.90;99.90;;;;;;4956614;29;20082;-70
2023/10/03 02:22:57;;;;;;;18.33;9.70;;;13.80;99.90;;;;;;4938570;29;20935;-69
2023/10/03 02:25:30;;;;;;;21.55;10.05;;;13.80;99.90;;;;;;4956044;29;20479;-71
2023/10/03 02:27:57;;;;;;;;;;;13.80;99.90;;;;;;4944063;29;20555;-70
2023/10/03 02:30:25;;;;;;;19.73;10.65;;;13.80;99.90;;;;;;4955180;29;19906;-70
2023/10/03 02:32:57;;;;;;;21.45;12.60;;;13.70;99.90;;;;;;4957251;29;20020;-71
2023/10/03 02:35:25;;;;;;;24.52;13.10;;;13.70;99.90;;;;;;4954240;29;20079;-70
2023/10/03 02:37:52;;;;;;;20.33;11.98;;;13.70;99.90;;;;;;4955442;29;20130;-71
2023/10/03 02:40:27;;;;;;;25.48;14.40;;;13.60;99.90;;;;;;4955499;29;20039;-74
2023/10/03 02:42:54;;;;;;;29.63;12.68;;;13.60;99.90;;;;;;4951014;29;20411;-69
2023/10/03 02:45:23;;;;;;;32.20;13.27;;;13.50;99.90;;;;;;4955488;28;20479;-70
2023/10/03 02:47:51;;;;;;;19.90;10.98;;;13.50;99.90;;;;;;4955131;28;20063;-69
2023/10/03 02:50:18;;;;;;;21.85;11.07;;;13.40;99.90;;;;;;4933388;28;20091;-70
2023/10/03 02:52:47;;;;;;;23.20;10.43;;;13.40;99.90;;;;;;4956061;29;20035;-70
2023/10/03 02:55:14;;;;;;;20.52;10.40;;;13.40;99.90;;;;;;4951453;29;20027;-74
2023/10/03 02:57:40;;;;;;;21.95;9.77;;;13.40;99.90;;;;;;4954227;29;20094;-70
2023/10/03 03:00:19;;;;;;;20.98;10.77;;;13.40;99.90;;;;;;4938826;29;20487;-70
2023/10/03 03:02:47;;;;;;;18.58;9.70;;;13.40;99.90;;;;;;4937412;29;20042;-70
2023/10/03 03:05:18;;;;;;;19.17;9.98;;;13.40;99.90;;;;;;4954756;28;20058;-70
2023/10/03 03:07:48;;;;;;;16.10;9.65;;;13.40;99.90;;;;;;4947712;29;20091;-70
2023/10/03 03:10:16;;;;;;;19.85;10.02;;;13.40;99.90;;;;;;4929235;29;20122;-71
2023/10/03 03:12:46;;;;;;;16.92;10.32;;;13.40;99.90;;;;;;4939378;29;20031;-69
2023/10/03 03:15:22;;;;;;;18.55;9.70;;;13.40;99.90;;;;;;4955245;29;20062;-70
2023/10/03 03:17:51;;;;;;;21.48;10.23;;;13.40;99.90;;;;;;4948589;29;20031;-70
2023/10/03 03:20:18;;;;;;;22.13;10.88;;;13.40;99.90;;;;;;4956546;29;20050;-69
2023/10/03 03:22:48;;;;;;;18.60;10.18;;;13.30;99.90;;;;;;4956799;29;20035;-73
2023/10/03 03:28:15;;;;;;;23.05;10.98;;;13.20;99.90;;;;;;4956473;29;20086;-71
2023/10/03 03:30:46;;;;;;;19.35;10.20;;;13.00;99.90;;;;;;4954304;29;20054;-70
2023/10/03 03:33:20;;;;;;;19.87;10.20;;;13.00;99.90;;;;;;4956149;29;20497;-70
2023/10/03 03:35:49;;;;;;;20.25;10.77;;;13.00;99.90;;;;;;4954313;29;20657;-70
2023/10/03 03:38:15;;;;;;;18.48;10.10;;;13.00;99.90;;;;;;4956359;29;20051;-70
2023/10/03 03:40:53;;;;;;;22.98;11.25;;;12.90;99.90;;;;;;4956381;29;20498;-70
2023/10/03 03:43:21;;;;;;;17.13;9.98;;;13.00;99.90;;;;;;4955748;29;20027;-69
2023/10/03 03:45:48;;;;;;;19.80;10.48;;;13.00;99.90;;;;;;4955865;29;20046;-71
2023/10/03 03:48:14;;;;;;;21.27;11.70;;;13.10;99.90;;;;;;4955866;29;20043;-70
2023/10/03 03:50:41;;;;;;;18.83;10.60;;;13.10;99.90;;;;;;4955868;29;20102;-70
2023/10/03 03:53:07;;;;;;;22.75;10.18;;;13.10;99.90;;;;;;4956066;29;20032;-70
2023/10/03 03:55:37;;;;;;;15.52;8.48;;;13.20;99.90;;;;;;4955955;29;20023;-71
2023/10/03 03:58:15;;;;;;;18.90;10.50;;;13.20;99.90;;;;;;4952642;29;20431;-70
2023/10/03 04:00:47;;;;;;;16.40;9.77;;;13.20;99.90;;;;;;4942926;29;20027;-75
2023/10/03 04:03:14;;;;;;;24.73;10.63;;;13.20;99.90;;;;;;4943508;29;20042;-75
2023/10/03 04:05:41;;;;;;;18.92;9.75;;;13.20;99.90;;;;;;4943193;29;20023;-70
2023/10/03 04:08:07;;;;;;;20.02;10.90;;;13.20;99.90;;;;;;4955645;29;20072;-71
2023/10/03 04:10:34;;;;;;;17.80;8.95;;;13.10;99.90;;;;;;4955605;29;20042;-70
2023/10/03 04:13:04;;;;;;;20.88;10.18;;;13.10;99.90;;;;;;4954788;29;20344;-71
2023/10/03 04:15:31;;;;;;;18.80;10.25;;;13.20;99.90;;;;;;4955446;29;20023;-70
2023/10/03 04:17:57;;;;;;;21.48;10.57;;;13.20;99.90;;;;;;4951071;29;20431;-70
2023/10/03 04:20:35;;;;;;;19.27;10.63;;;13.10;99.90;;;;;;4954942;29;20031;-70
2023/10/03 04:23:07;;;;;;;19.77;10.95;;;13.10;99.90;;;;;;4954822;29;20023;-71
2023/10/03 04:25:38;;;;;;;19.73;10.13;;;13.10;99.90;;;;;;4948244;29;20463;-70
2023/10/03 04:28:05;;;;;;;22.27;10.38;;;13.10;99.90;;;;;;4955335;29;20031;-70
2023/10/03 04:30:31;;;;;;;18.35;11.27;;;13.10;99.90;;;;;;4955442;29;20518;-71
2023/10/03 04:32:57;;;;;;;22.15;11.38;;;13.20;99.90;;;;;;4955533;29;20031;-71
2023/10/03 04:35:24;;;;;;;18.83;10.07;;;13.20;99.90;;;;;;4953943;29;20016;-71
2023/10/03 04:37:51;;;;;;;19.10;10.68;;;13.20;99.90;;;;;;4946464;29;20046;-71
2023/10/03 04:40:22;;;;;;;19.02;11.32;;;13.20;99.90;;;;;;4955238;29;20046;-71
2023/10/03 04:42:55;;;;;;;19.70;10.65;;;13.20;99.90;;;;;;4955206;29;20027;-71
2023/10/03 04:45:22;;;;;;;22.17;11.63;;;13.20;99.90;;;;;;4954716;29;20044;-70
2023/10/03 04:47:48;;;;;;;20.27;11.05;;;13.30;99.90;;;;;;4955096;29;20047;-71
2023/10/03 04:50:19;;;;;;;21.73;11.43;;;13.30;99.90;;;;;;4954452;29;20086;-71
2023/10/03 04:52:48;;;;;;;21.20;9.77;;;13.40;99.90;;;;;;4937804;29;20047;-71
2023/10/03 04:55:21;;;;;;;19.27;10.32;;;13.40;99.90;;;;;;4942095;29;20050;-71
2023/10/03 04:57:49;;;;;;;18.63;9.55;;;13.40;99.90;;;;;;4954812;29;20035;-71
2023/10/03 05:00:20;;;;;;;22.33;11.25;;;13.50;99.90;;;;;;4953759;29;20023;-71
2023/10/03 05:02:48;;;;;;;20.17;10.00;;;13.80;99.90;;;;;;4955448;29;20031;-71
2023/10/03 05:05:18;;;;;;;19.50;9.80;;;14.20;99.90;;;;;;4946125;29;20019;-72
2023/10/03 05:07:45;;;;;;;18.83;9.65;;;14.60;99.90;;;;;;4951679;29;20090;-73
2023/10/03 05:10:12;;;;;;;20.83;10.75;;;15.00;99.90;;;;;;4954736;29;20356;-75
2023/10/03 05:12:38;;;;;;;16.95;8.90;;;15.40;99.90;;;;;;4954682;29;20534;-71
2023/10/03 05:15:07;;;;;;;17.85;8.48;;;15.90;99.90;;;;;;4954792;29;20031;-71
2023/10/03 05:17:36;;;;;;;16.63;8.93;;;16.30;99.90;;;;;;4954077;29;20090;-71
2023/10/03 05:20:03;;;;;;;22.38;9.82;;;16.70;99.90;;;;;;4953550;29;20393;-75
2023/10/03 05:22:32;;;;;;;17.30;8.77;;;17.00;99.90;;;;;;4954931;29;20032;-71
2023/10/03 05:25:00;;;;;;;18.95;8.52;;;17.30;99.90;;;;;;4954201;29;20038;-71
2023/10/03 05:27:28;;;;;;;18.52;9.05;;;17.70;99.90;;;;;;4954798;28;20024;-72
2023/10/03 05:29:56;;;;;;;14.05;8.13;;;17.80;99.90;;;;;;4958158;29;20031;-72
2023/10/03 05:32:22;;;;;;;19.30;9.50;;;17.70;99.90;;;;;;4958728;29;20031;-73
2023/10/03 05:34:49;;;;;;;19.60;10.55;;;18.00;99.90;;;;;;4958636;29;20027;-75
2023/10/03 05:37:14;;;;;;;18.05;10.15;;;18.30;99.90;;;;;;4957984;29;20510;-72
2023/10/03 05:39:41;;;;;;;20.27;10.00;;;18.50;99.90;;;;;;4958660;29;20035;-71
2023/10/03 05:42:07;;;;;;;24.45;10.43;;;18.90;99.90;;;;;;4958419;29;20027;-72
2023/10/03 05:44:33;;;;;;;22.80;10.80;;;19.30;99.90;;;;;;4957841;29;20034;-74
2023/10/03 05:46:59;;;;;;;20.67;9.98;;;19.30;99.90;;;;;;4957900;29;20043;-71
2023/10/03 05:49:25;;;;;;;19.90;11.02;;;19.50;99.90;;;;;;4958379;29;20110;-71
2023/10/03 05:51:55;;;;;;;23.17;10.65;;;19.30;99.90;;;;;;4958249;29;20467;-75
2023/10/03 05:54:25;;;;;;;22.52;11.52;;;18.10;99.90;;;;;;4957843;29;20042;-71
2023/10/03 05:56:52;;;;;;;23.17;12.02;;;17.80;99.90;;;;;;4946375;29;20019;-71
2023/10/03 05:59:20;;;;;;;23.90;12.43;;;17.60;99.90;;;;;;4958286;29;20028;-71
2023/10/03 06:01:47;;;;;;;25.85;11.77;;;17.30;99.90;;;;;;4956918;29;20040;-71
2023/10/03 06:04:13;;;;;;;23.73;12.30;;;17.20;99.90;;;;;;4957879;29;20019;-74
2023/10/03 06:06:40;;;;;;;29.98;13.75;;;17.10;99.90;;;;;;4956613;29;20043;-74
2023/10/03 06:09:06;;;;;;;26.88;11.95;;;17.00;99.90;;;;;;4956646;29;20077;-74
2023/10/03 06:11:32;;;;;;;22.15;12.00;;;16.80;99.90;;;;;;4946739;29;20035;-71
2023/10/03 06:13:58;;;;;;;28.25;12.00;;;16.70;99.90;;;;;;4957687;29;20105;-71
2023/10/03 06:16:26;;;;;;;22.92;12.35;;;16.80;99.90;;;;;;4957751;29;20074;-75
2023/10/03 06:18:52;;;;;;;28.10;14.25;;;16.90;99.90;;;;;;4957437;29;20054;-70
2023/10/03 06:21:18;;;;;;;27.58;13.23;;;16.90;99.90;;;;;;4957825;29;20105;-71
2023/10/03 06:23:47;;;;;;;24.63;12.93;;;16.90;99.90;;;;;;4957531;29;20493;-71
2023/10/03 06:26:18;;;;;;;30.55;12.65;;;16.90;99.90;;;;;;4957869;29;20019;-71
2023/10/03 06:28:48;;;;;;;25.55;12.45;;;16.90;99.90;;;;;;4956138;29;20039;-71
2023/10/03 06:31:15;;;;;;;21.08;13.13;;;17.10;99.90;;;;;;4957089;29;20050;-71
2023/10/03 06:33:44;;;;;;;23.33;12.90;;;17.20;99.90;;;;;;4957574;29;20478;-71
2023/10/03 06:36:12;;;;;;;27.88;13.23;;;17.40;99.90;;;;;;4957616;29;20031;-71
2023/10/03 06:38:38;;;;;;;28.25;15.77;;;17.50;99.90;;;;;;4956833;29;20106;-71
2023/10/03 06:41:05;;;;;;;24.08;13.73;;;17.60;99.90;;;;;;4957424;28;20019;-72
2023/10/03 06:43:32;;;;;;;26.77;16.25;;;17.80;99.90;;;;;;4953568;29;20099;-72
2023/10/03 06:45:58;;;;;;;27.60;15.82;;;17.90;99.90;;;;;;4948554;29;20082;-73
2023/10/03 06:48:24;;;;;;;33.45;16.15;;;18.00;99.90;;;;;;4957245;29;20043;-72
2023/10/03 06:50:51;;;;;;;25.85;11.65;;;18.10;99.90;;;;;;4957463;29;20106;-71
2023/10/03 06:53:18;;;;;;;27.10;12.75;;;18.20;99.90;;;;;;4957266;29;20486;-73
2023/10/03 06:55:49;;;;;;;22.45;11.85;;;18.30;99.90;;;;;;4956618;29;20082;-71
2023/10/03 06:58:15;;;;;;;24.13;11.98;;;18.50;99.90;;;;;;4957171;29;20062;-74
2023/10/03 07:00:41;;;;;;;28.45;13.63;;;18.60;99.90;;;;;;4957042;29;20379;-70
2023/10/03 07:03:08;;;;;;;26.60;13.60;;;18.80;99.90;;;;;;4957115;29;20031;-72
2023/10/03 07:05:34;;;;;;;24.83;12.60;;;19.00;99.90;;;;;;4956041;29;20019;-70
2023/10/03 07:08:00;;;;;;;24.77;12.10;;;19.20;99.90;;;;;;4956208;29;20039;-71
2023/10/03 07:10:26;;;;;;;23.50;11.95;;;19.30;99.90;;;;;;4957135;29;20050;-70
2023/10/03 07:12:52;;;;;;;17.50;10.73;;;19.50;99.90;;;;;;4956806;29;20538;-70
2023/10/03 07:15:18;;;;;;;22.08;11.30;;;19.40;99.90;;;;;;4956690;29;20023;-74
2023/10/03 07:17:44;;;;;;;24.52;11.57;;;19.30;99.90;;;;;;4956314;29;20042;-70
2023/10/03 07:20:12;;;;;;;24.48;11.18;;;19.60;99.90;;;;;;4934693;29;20047;-70
2023/10/03 07:22:42;;;;;;;20.50;11.60;;;19.60;99.90;;;;;;4956272;29;20027;-70
2023/10/03 07:25:09;;;;;;;29.63;11.45;;;19.30;99.90;;;;;;4956732;29;20035;-70
2023/10/03 07:27:36;;;;;;;23.00;11.20;;;19.20;99.90;;;;;;4956457;29;20035;-70
2023/10/03 07:30:03;;;;;;;20.23;11.07;;;19.10;99.90;;;;;;4953611;29;20040;-71
2023/10/03 07:32:32;;;;;;;18.70;10.48;;;19.40;99.90;;;;;;4945261;29;20023;-71
2023/10/03 07:34:58;;;;;;;25.33;13.00;;;19.30;99.90;;;;;;4956179;29;20031;-71
2023/10/03 07:37:24;;;;;;;19.88;10.27;;;19.00;99.90;;;;;;4956488;29;20070;-71
2023/10/03 07:39:51;;;;;;;27.10;16.23;;;19.60;99.90;;;;;;4952967;29;20020;-71
2023/10/03 07:42:17;;;;;;;33.53;23.40;;;19.80;99.90;;;;;;4956456;29;20031;-72
2023/10/03 07:44:44;;;;;;;19.85;12.05;;;20.10;99.90;;;;;;4956126;29;20535;-71
2023/10/03 07:47:12;;;;;;;35.95;27.05;;;;;;;;;;4956180;29;20059;-71
2023/10/03 07:49:41;;;;;;;19.45;10.27;;;20.40;99.90;;;;;;4956237;29;20077;-71
2023/10/03 07:52:07;;;;;;;17.08;7.97;;;20.60;99.90;;;;;;4953698;29;20011;-71
2023/10/03 07:54:36;;;;;;;18.58;7.88;;;20.60;99.90;;;;;;4954299;29;20046;-71
2023/10/03 07:57:06;;;;;;;15.60;8.52;;;20.20;99.90;;;;;;4945692;29;20102;-70
2023/10/03 07:59:32;;;;;;;22.75;8.30;;;20.40;99.90;;;;;;4955465;29;20083;-71
2023/10/03 08:02:04;;;;;;;15.32;8.93;;;20.80;99.90;;;;;;4955146;29;20019;-71
2023/10/03 08:04:31;;;;;;;19.67;13.18;;;20.20;99.90;;;;;;4953163;29;20118;-74
2023/10/03 08:06:58;;;;;;;22.38;9.50;;;20.60;99.90;;;;;;4954819;29;20030;-71
2023/10/03 08:09:25;;;;;;;18.55;9.15;;;20.90;99.90;;;;;;4955493;29;20031;-71
2023/10/03 08:11:52;;;;;;;20.00;9.15;;;21.10;99.90;;;;;;4955896;29;20015;-74
2023/10/03 08:14:18;;;;;;;17.90;8.82;;;21.20;99.90;;;;;;4955058;29;20035;-71
2023/10/03 08:16:47;;;;;;;18.60;9.02;;;21.40;99.90;;;;;;4956021;29;20023;-71
2023/10/03 08:19:26;;;;;;;19.63;7.95;;;21.60;99.90;;;;;;4954911;29;20043;-72
2023/10/03 08:21:54;;;;;;;20.75;9.27;;;21.60;99.90;;;;;;4949558;29;20031;-71
2023/10/03 08:24:30;;;;;;;20.27;9.20;;;21.90;99.90;;;;;;4955666;29;20042;-72
2023/10/03 08:27:01;;;;;;;18.38;9.68;;;22.10;99.90;;;;;;4955303;29;20073;-69
2023/10/03 08:29:27;;;;;;;17.48;8.95;;;21.70;99.90;;;;;;4955473;29;20050;-70
2023/10/03 08:31:59;;;;;;;22.10;10.20;;;21.80;99.90;;;;;;4954823;29;20386;-71
2023/10/03 08:34:30;;;;;;;;;;;22.10;99.90;;;;;;4955759;29;20459;-72
2023/10/03 08:36:59;;;;;;;18.67;9.30;;;22.10;99.90;;;;;;4955263;29;19911;-71
2023/10/03 08:39:26;;;;;;;19.73;9.35;;;22.40;99.90;;;;;;4945050;29;20024;-71
2023/10/03 08:42:15;;;;;;;17.38;8.82;;;22.50;99.90;;;;;;4952469;29;20031;-70
2023/10/03 08:44:52;;;;;;;20.38;9.02;;;22.60;99.90;;;;;;4955211;29;20027;-71
2023/10/03 08:47:28;;;;;;;16.63;9.02;;;22.70;99.90;;;;;;4954945;29;20134;-71
2023/10/03 08:50:11;;;;;;;15.90;8.80;;;22.40;99.90;;;;;;4955007;29;20114;-71
2023/10/03 08:52:44;;;;;;;;;;;22.70;99.90;;;;;;4954882;29;20035;-71
2023/10/03 08:55:10;;;;;;;12.82;7.75;;;22.90;99.90;;;;;;4952487;29;20005;-71
2023/10/03 08:57:35;;;;;;;19.15;7.47;;;23.00;99.90;;;;;;4951800;29;20106;-70
2023/10/03 09:00:09;;;;;;;13.15;7.22;;;;;;;;;;4954536;29;20037;-70
2023/10/03 09:02:46;;;;;;;13.63;7.00;;;23.20;99.90;;;;;;4949003;29;20054;-75
2023/10/03 09:05:20;;;;;;;15.18;7.68;;;22.90;99.90;;;;;;4955305;29;20031;-69
2023/10/03 09:07:50;;;;;;;15.98;8.15;;;;;;;;;;4953812;29;20039;-72
2023/10/03 09:10:22;;;;;;;15.35;7.38;;;23.60;99.90;;;;;;4955211;29;20031;-73
2023/10/03 09:12:51;;;;;;;;;;;23.40;99.90;;;;;;4955235;29;20038;-69
2023/10/03 09:15:18;;;;;;;17.73;7.50;;;23.20;98.40;;;;;;4954687;29;19945;-69
2023/10/03 09:17:49;;;;;;;14.57;8.55;;;23.40;99.30;;;;;;4954378;29;20078;-71
2023/10/03 09:20:22;;;;;;;18.97;6.97;;;23.40;98.50;;;;;;4950426;29;20115;-70
2023/10/03 09:22:48;;;;;;;12.35;6.95;;;23.50;98.60;;;;;;4946118;29;20472;-70
2023/10/03 09:25:21;;;;;;;14.32;7.53;;;23.50;98.80;;;;;;4949923;29;20041;-69
2023/10/03 09:27:47;;;;;;;17.48;8.35;;;23.50;98.40;;;;;;4949269;29;20043;-71
2023/10/03 09:30:22;;;;;;;20.38;7.63;;;23.70;98.40;;;;;;4953713;29;20030;-71
2023/10/03 09:32:53;;;;;;;26.60;7.22;;;23.80;97.20;;;;;;4955224;28;20027;-70
2023/10/03 09:35:19;;;;;;;13.38;6.55;;;23.50;97.20;;;;;;4948676;29;20055;-70
2023/10/03 09:37:48;;;;;;;13.75;7.28;;;23.70;96.80;;;;;;4951929;28;20074;-70
2023/10/03 09:40:17;;;;;;;14.82;6.63;;;23.80;97.80;;;;;;4949702;29;20451;-71
2023/10/03 09:42:49;;;;;;;16.67;6.57;;;23.80;97.50;;;;;;4955143;29;20058;-71
2023/10/03 09:45:24;;;;;;;13.13;6.93;;;23.90;96.40;;;;;;4954608;29;20424;-71
2023/10/03 09:47:58;;;;;;;20.30;7.05;;;23.90;95.60;;;;;;4955310;28;20122;-69
2023/10/03 09:50:30;;;;;;;13.48;6.43;;;23.90;96.00;;;;;;4954867;28;20378;-70
2023/10/03 09:53:01;;;;;;;15.40;7.35;;;24.10;99.20;;;;;;4953372;28;20031;-70
2023/10/03 09:55:41;;;;;;;13.77;6.77;;;24.10;96.10;;;;;;4946884;28;20028;-72
2023/10/03 09:58:08;;;;;;;16.70;7.40;;;24.10;95.10;;;;;;4952032;28;20031;-69
2023/10/03 10:01:11;;;;;;;15.70;7.43;;;24.10;95.30;;;;;;4950284;28;20031;-69
2023/10/03 10:03:36;;;;;;;18.10;7.30;;;24.10;95.40;;;;;;4952046;28;20063;-69
2023/10/03 10:06:15;;;;;;;17.85;7.10;;;24.20;94.90;;;;;;4957493;28;20083;-70
2023/10/03 10:09:00;;;;;;;15.90;7.82;;;24.40;95.60;;;;;;4954269;29;20039;-70
2023/10/03 10:11:27;;;;;;;18.85;7.95;;;24.20;94.20;;;;;;4954194;29;20394;-69
2023/10/03 10:14:02;;;;;;;14.05;6.80;;;;;;;;;;4954539;28;20015;-70
2023/10/03 10:16:28;;;;;;;20.67;6.55;;;24.40;95.10;;;;;;4953827;28;20055;-71
2023/10/03 10:18:55;;;;;;;17.85;7.13;;;24.50;93.00;;;;;;4957520;29;20062;-70
2023/10/03 10:21:37;;;;;;;11.52;6.30;;;24.40;93.20;;;;;;4949932;29;20035;-70
2023/10/03 10:24:20;;;;;;;19.10;7.28;;;24.50;92.70;;;;;;4958256;29;20031;-70
2023/10/03 10:26:52;;;;;;;16.48;6.57;;;24.50;93.80;;;;;;4957895;29;20063;-71
2023/10/03 10:29:24;;;;;;;14.23;7.07;;;24.40;91.90;;;;;;4945407;29;20086;-70
2023/10/03 10:32:00;;;;;;;18.30;7.22;;;24.50;92.00;;;;;;4957305;29;20062;-70
2023/10/03 10:34:29;;;;;;;15.45;6.63;;;24.60;92.70;;;;;;4957081;29;20031;-70
2023/10/03 10:37:01;;;;;;;16.63;6.60;;;24.70;91.70;;;;;;4956235;28;20023;-70
2023/10/03 10:39:56;;;;;;;17.98;6.78;;;24.90;91.70;;;;;;4950104;28;20045;-70
2023/10/03 10:42:26;;;;;;;14.70;6.38;;;25.10;91.50;;;;;;4955174;28;20466;-70
2023/10/03 10:45:13;;;;;;;13.45;6.38;;;;;;;;;;4958712;28;20036;-70
2023/10/03 10:47:45;;;;;;;13.73;6.47;;;;;;;;;;4955451;29;20050;-71
2023/10/03 10:50:11;;;;;;;13.50;7.22;;;25.20;94.20;;;;;;4956395;29;20023;-70
2023/10/03 10:52:52;;;;;;;13.95;6.72;;;25.30;90.50;;;;;;4957339;29;20427;-71
2023/10/03 10:55:18;;;;;;;12.00;6.75;;;25.10;86.80;;;;;;4957190;29;20035;-70
2023/10/03 10:57:44;;;;;;;14.88;5.97;;;25.30;88.30;;;;;;4957659;29;20047;-70
2023/10/03 11:00:22;;;;;;;16.10;6.55;;;25.20;86.20;;;;;;4968821;28;20494;-73
2023/10/03 11:02:48;;;;;;;9.55;5.90;;;25.20;84.10;;;;;;4955552;28;20420;-70
2023/10/03 11:05:14;;;;;;;12.07;6.45;;;25.20;87.90;;;;;;4957356;28;20028;-71
2023/10/03 11:07:54;;;;;;;16.52;6.55;;;25.30;86.20;;;;;;4956805;29;20043;-70
2023/10/03 11:10:21;;;;;;;15.35;6.28;;;25.50;86.10;;;;;;4944427;29;20106;-70
2023/10/03 11:13:03;;;;;;;11.05;5.07;;;25.40;82.80;;;;;;4957002;29;20115;-70
2023/10/03 11:15:30;;;;;;;17.50;6.80;;;25.50;84.10;;;;;;4942104;29;20019;-70
2023/10/03 11:17:58;;;;;;;18.65;6.43;;;25.50;83.90;;;;;;4957066;28;20027;-72
2023/10/03 11:20:26;;;;;;;14.88;5.65;;;25.50;83.10;;;;;;4956860;28;20039;-71
2023/10/03 11:22:52;;;;;;;11.68;5.75;;;25.60;82.50;;;;;;4921067;29;20083;-71
2023/10/03 11:25:19;;;;;;;13.10;5.32;;;25.70;81.50;;;;;;4956590;28;20031;-72
2023/10/03 11:27:46;;;;;;;11.70;5.28;;;;;;;;;;4955899;28;20098;-71
2023/10/03 11:30:25;;;;;;;11.73;5.63;;;;;;;;;;4954515;29;20050;-71
2023/10/03 11:33:00;;;;;;;12.05;5.60;;;25.90;84.00;;;;;;4955942;29;20023;-74
2023/10/03 11:35:26;;;;;;;14.82;5.93;;;25.90;83.60;;;;;;4959983;28;20069;-72
2023/10/03 11:37:54;;;;;;;8.13;4.13;;;25.90;82.20;;;;;;4957128;28;20055;-71
2023/10/03 11:40:26;;;;;;;10.93;5.60;;;26.00;80.20;;;;;;4955834;29;20032;-72
2023/10/03 11:42:52;;;;;;;12.00;5.38;;;26.00;82.30;;;;;;4956525;28;20082;-71
2023/10/03 11:45:20;;;;;;;11.77;5.55;;;26.10;80.50;;;;;;4966882;28;20028;-72
2023/10/03 11:48:08;;;;;;;12.38;5.93;;;26.00;78.00;;;;;;4955147;29;20395;-71
2023/10/03 11:50:36;;;;;;;12.88;5.10;;;26.10;80.60;;;;;;4956175;29;20046;-71
2023/10/03 11:53:03;;;;;;;9.93;4.30;;;26.10;78.10;;;;;;4955896;29;20026;-71
2023/10/03 11:55:32;;;;;;;9.15;4.80;;;;;;;;;;4956221;29;20050;-71
2023/10/03 11:58:01;;;;;;;10.82;5.05;;;26.20;78.80;;;;;;4956243;29;20399;-72
2023/10/03 12:00:28;;;;;;;14.38;5.05;;;26.10;78.30;;;;;;4956629;29;20050;-72
2023/10/03 12:02:55;;;;;;;12.77;4.35;;;26.10;78.90;;;;;;4955924;29;20070;-72
2023/10/03 12:05:22;;;;;;;21.83;4.82;;;26.20;78.40;;;;;;4956310;29;20035;-72
2023/10/03 12:07:51;;;;;;;11.93;5.20;;;26.30;76.70;;;;;;4955705;29;20031;-72
2023/10/03 12:10:19;;;;;;;9.98;5.07;;;26.20;75.40;;;;;;4955894;29;20498;-71
2023/10/03 12:12:45;;;;;;;13.07;4.88;;;26.20;77.20;;;;;;4955540;29;20035;-70
2023/10/03 12:15:16;;;;;;;10.30;5.00;;;26.10;76.80;;;;;;4955869;29;20030;-69
2023/10/03 12:17:46;;;;;;;11.85;4.80;;;26.10;78.40;;;;;;4955381;29;20372;-73
2023/10/03 12:20:14;;;;;;;11.15;5.30;;;26.10;77.10;;;;;;4955865;29;20054;-70
2023/10/03 12:22:41;;;;;;;12.48;5.30;;;26.20;78.50;;;;;;4955878;29;20102;-72
2023/10/03 12:25:09;;;;;;;12.07;4.75;;;26.20;79.30;;;;;;4955902;29;20065;-71
2023/10/03 12:27:36;;;;;;;14.65;5.72;;;26.20;75.30;;;;;;4955708;29;20368;-70
2023/10/03 12:30:04;;;;;;;8.90;4.43;;;26.20;77.20;;;;;;4955477;29;20027;-70
2023/10/03 12:32:34;;;;;;;8.10;4.32;;;26.20;76.00;;;;;;4942708;29;20194;-71
2023/10/03 12:35:03;;;;;;;9.70;4.82;;;26.10;75.50;;;;;;4955479;29;20042;-71
2023/10/03 12:37:31;;;;;;;10.95;5.30;;;26.20;76.10;;;;;;4955221;28;20423;-72
2023/10/03 12:40:02;;;;;;;10.60;4.78;;;26.20;75.70;;;;;;4955215;29;20113;-71
2023/10/03 12:42:31;;;;;;;11.82;4.88;;;26.30;76.90;;;;;;4955627;29;20024;-70
2023/10/03 12:45:00;;;;;;;15.07;5.57;;;26.40;79.10;;;;;;4955057;29;20034;-71
2023/10/03 12:47:27;;;;;;;9.50;5.43;;;26.30;80.60;;;;;;4953723;28;20063;-71
2023/10/03 12:49:53;;;;;;;12.38;5.68;;;26.30;80.70;;;;;;4954916;29;20143;-72